Time;durP1;ratioP1;P1;durP2;ratioP2;P2;SDS_P1;SDS_P2;PMS_P1;PMS_P2;Temp;Humidity;BMP_temperature;BMP_pressure;BME280_temperature;BME280_humidity;BME280_pressure;Samples;Min_cycle;Max_cycle;Signal;HPM_P1;HPM_P2
2023/11/19 00:00:16;;;;;;;17.65;6.25;;;;;;;9.58;83.04;100129.47;10288770;28;20057;-61
2023/11/19 00:05:18;;;;;;;11.73;5.93;;;;;;;9.62;82.89;100114.69;10305158;28;20051;-61
2023/11/19 00:10:20;;;;;;;12.95;6.05;;;;;;;9.67;82.71;100100.72;10303184;28;20058;-62
2023/11/19 00:15:24;;;;;;;12.05;5.95;;;;;;;9.71;82.61;100104.72;10304249;28;20962;-61
2023/11/19 00:20:25;;;;;;;14.02;5.80;;;;;;;9.78;82.83;100102.19;10305876;28;20873;-62
2023/11/19 00:25:26;;;;;;;15.68;5.75;;;;;;;9.79;82.69;100114.59;10306271;28;20711;-62
2023/11/19 00:30:28;;;;;;;12.80;5.68;;;;;;;9.85;82.62;100124.59;10294900;28;20505;-62
2023/11/19 00:35:31;;;;;;;12.32;5.97;;;;;;;9.93;82.50;100116.50;10306133;28;20050;-62
2023/11/19 00:40:33;;;;;;;13.10;6.30;;;;;;;9.92;82.63;100099.56;10305411;28;20046;-62
2023/11/19 00:45:34;;;;;;;11.57;6.20;;;;;;;9.95;82.48;100076.06;10302207;28;20078;-63
2023/11/19 00:50:35;;;;;;;14.95;6.80;;;;;;;9.98;82.30;100092.66;10309905;28;20057;-62
2023/11/19 00:55:39;;;;;;;12.50;6.90;;;;;;;9.89;82.50;100082.97;10301745;28;20729;-62
2023/11/19 01:00:44;;;;;;;13.93;6.05;;;;;;;9.90;82.60;100072.06;10303332;28;20513;-62
2023/11/19 01:05:46;;;;;;;17.38;6.88;;;;;;;9.89;82.83;100056.97;10300150;28;20043;-62
2023/11/19 01:10:48;;;;;;;14.30;6.85;;;;;;;9.89;82.86;100050.75;10295673;28;20055;-62
2023/11/19 01:15:49;;;;;;;13.50;6.88;;;;;;;9.91;83.05;100054.09;10303232;28;20053;-62
2023/11/19 01:20:51;;;;;;;16.00;6.47;;;;;;;9.91;82.78;100046.03;10301836;28;20355;-62
2023/11/19 01:25:52;;;;;;;13.60;6.82;;;;;;;9.96;82.80;100034.78;10284449;28;20387;-62
2023/11/19 01:30:54;;;;;;;14.73;6.88;;;;;;;10.04;82.69;100035.53;10298507;28;20059;-62
2023/11/19 01:35:58;;;;;;;15.73;5.68;;;;;;;10.03;82.95;100062.56;10285813;28;20417;-63
2023/11/19 01:41:01;;;;;;;12.30;6.78;;;;;;;10.06;82.83;100046.09;10299560;28;20066;-63
2023/11/19 01:46:04;;;;;;;12.15;6.57;;;;;;;10.10;82.90;100037.50;10301571;28;20098;-62
2023/11/19 01:51:08;;;;;;;16.52;6.80;;;;;;;10.10;82.68;100050.94;10283300;28;20057;-62
2023/11/19 01:56:11;;;;;;;15.82;6.25;;;;;;;10.11;82.87;100022.22;10299556;28;20585;-62
2023/11/19 02:01:13;;;;;;;13.07;5.63;;;;;;;10.13;82.43;100025.59;10302034;28;20513;-62
2023/11/19 02:06:15;;;;;;;14.10;6.35;;;;;;;10.15;82.56;100020.88;10292037;28;20528;-62
2023/11/19 02:11:16;;;;;;;10.70;5.47;;;;;;;10.24;82.61;100016.25;10298722;28;20433;-62
2023/11/19 02:16:18;;;;;;;11.82;5.85;;;;;;;10.22;82.50;100008.34;10290328;28;20058;-62
2023/11/19 02:21:20;;;;;;;11.90;5.57;;;;;;;10.26;82.37;99992.72;10300915;28;20116;-62
2023/11/19 02:26:32;;;;;;;10.45;5.18;;;;;;;10.40;82.05;100008.03;10284837;28;20055;-63
2023/11/19 02:31:35;;;;;;;12.43;5.53;;;;;;;10.39;82.23;99990.28;10297282;28;20050;-62
2023/11/19 02:36:36;;;;;;;10.95;5.32;;;;;;;10.42;82.10;99981.81;10294030;28;20046;-63
2023/11/19 02:41:39;;;;;;;11.50;5.40;;;;;;;10.39;81.83;99984.06;10300262;28;20505;-62
2023/11/19 02:46:42;;;;;;;10.80;5.70;;;;;;;10.39;82.17;99994.81;10282745;28;20054;-62
2023/11/19 02:51:44;;;;;;;9.40;5.43;;;;;;;10.45;82.03;99969.91;10298696;28;20498;-62
2023/11/19 02:56:47;;;;;;;12.85;5.55;;;;;;;10.46;81.98;99967.00;10299431;28;20069;-62
2023/11/19 03:01:50;;;;;;;8.15;4.85;;;;;;;10.48;82.32;99978.41;10296476;28;20120;-62
2023/11/19 03:06:53;;;;;;;11.68;5.05;;;;;;;10.49;82.39;99966.63;10299868;28;20055;-62
2023/11/19 03:11:55;;;;;;;12.27;4.40;;;;;;;10.53;82.03;99951.00;10300066;28;20054;-63
2023/11/19 03:16:56;;;;;;;12.20;4.95;;;;;;;10.52;82.04;99949.31;10301474;28;20494;-62
2023/11/19 03:21:59;;;;;;;9.13;4.43;;;;;;;10.50;82.12;99952.19;10295650;28;20077;-64
2023/11/19 03:27:01;;;;;;;7.95;4.40;;;;;;;10.53;82.58;99945.63;10300031;28;20046;-63
2023/11/19 03:32:02;;;;;;;8.27;4.38;;;;;;;10.56;82.68;99950.59;10295244;28;20047;-63
2023/11/19 03:37:04;;;;;;;10.07;4.35;;;;;;;10.62;82.17;99962.47;10302888;28;20070;-64
2023/11/19 03:42:05;;;;;;;8.35;3.78;;;;;;;10.65;82.13;99957.56;10299254;28;20051;-63
2023/11/19 03:47:07;;;;;;;8.77;4.13;;;;;;;10.66;82.62;99951.19;10300238;28;20498;-64
2023/11/19 03:52:09;;;;;;;6.90;3.40;;;;;;;10.66;82.50;99947.63;10298170;28;20529;-63
2023/11/19 03:57:21;;;;;;;8.23;3.53;;;;;;;10.66;82.62;99955.69;10301645;28;20109;-64
2023/11/19 04:02:23;;;;;;;6.32;3.17;;;;;;;10.69;82.42;99942.72;10284250;28;20050;-63
2023/11/19 04:07:25;;;;;;;6.70;3.65;;;;;;;10.73;82.48;99910.09;10300675;28;20077;-62
2023/11/19 04:12:26;;;;;;;10.90;4.60;;;;;;;10.77;82.31;99914.91;10299004;28;20050;-63
2023/11/19 04:17:28;;;;;;;7.78;4.03;;;;;;;10.81;82.28;99923.44;10293707;28;20134;-63
2023/11/19 04:22:29;;;;;;;10.10;4.10;;;;;;;10.83;82.17;99937.53;10298603;28;20129;-63
2023/11/19 04:27:31;;;;;;;6.55;3.40;;;;;;;10.82;82.25;99934.00;10301096;28;20097;-63
2023/11/19 04:32:32;;;;;;;10.32;4.55;;;;;;;10.89;82.69;99921.47;10299053;28;20050;-63
2023/11/19 04:37:34;;;;;;;10.38;3.97;;;;;;;10.99;82.66;99918.47;10299667;28;20078;-64
2023/11/19 04:42:36;;;;;;;11.40;4.47;;;;;;;11.04;82.35;99910.69;10295270;28;20117;-63
2023/11/19 04:47:37;;;;;;;10.32;4.78;;;;;;;11.01;82.25;99910.22;10307495;28;20065;-63
2023/11/19 04:52:45;;;;;;;9.93;3.92;;;;;;;11.04;82.39;99913.38;10306088;28;20051;-63
2023/11/19 04:57:47;;;;;;;6.78;3.53;;;;;;;11.13;82.04;99913.25;10301539;28;20057;-62
2023/11/19 05:02:48;;;;;;;6.60;4.00;;;;;;;11.16;82.05;99911.00;10303080;28;20058;-63
2023/11/19 05:07:50;;;;;;;9.45;3.88;;;;;;;11.22;82.47;99926.38;10307070;28;20046;-62
2023/11/19 05:12:51;;;;;;;8.00;4.63;;;;;;;11.29;82.20;99929.13;10307584;28;20498;-64
2023/11/19 05:17:53;;;;;;;11.48;4.00;;;;;;;11.27;81.95;99920.44;10305657;28;20414;-64
2023/11/19 05:22:55;;;;;;;10.25;3.75;;;;;;;11.37;82.12;99918.25;10307997;28;20053;-68
2023/11/19 05:27:56;;;;;;;4.80;3.05;;;;;;;11.41;81.61;99907.94;10301406;28;20054;-70
2023/11/19 05:32:57;;;;;;;5.93;3.55;;;;;;;11.42;82.16;99915.00;10283324;28;20054;-70
2023/11/19 05:37:59;;;;;;;6.07;2.95;;;;;;;11.53;81.39;99909.06;10304938;28;20050;-70
2023/11/19 05:43:00;;;;;;;13.50;6.95;;;;;;;11.58;81.70;99909.34;10288819;28;20053;-69
2023/11/19 05:48:04;;;;;;;8.10;3.85;;;;;;;11.62;81.44;99910.63;10302889;28;20129;-69
2023/11/19 05:53:06;;;;;;;9.80;5.00;;;;;;;11.68;81.58;99887.47;10295708;28;20050;-70
2023/11/19 05:58:11;;;;;;;10.20;4.68;;;;;;;11.70;81.49;99888.94;10300891;28;20090;-66
2023/11/19 06:03:12;;;;;;;5.78;4.00;;;;;;;11.67;81.84;99899.25;10300746;28;20061;-68
2023/11/19 06:08:14;;;;;;;8.07;3.75;;;;;;;11.66;81.50;99911.91;10302513;28;20078;-68
2023/11/19 06:13:16;;;;;;;6.65;3.72;;;;;;;11.67;82.17;99920.78;10301032;28;20516;-69
2023/11/19 06:18:19;;;;;;;12.38;6.22;;;;;;;11.75;81.97;99923.38;10290923;28;20509;-69
2023/11/19 06:23:21;;;;;;;9.75;4.60;;;;;;;11.79;81.69;99930.03;10294477;28;20164;-66
2023/11/19 06:28:23;;;;;;;9.65;4.50;;;;;;;11.67;82.33;99942.34;10299823;28;20051;-68
2023/11/19 06:33:24;;;;;;;10.43;4.72;;;;;;;11.65;82.22;99930.94;10304482;28;20142;-65
2023/11/19 06:38:26;;;;;;;11.13;4.55;;;;;;;11.76;82.14;99926.91;10289879;28;20051;-65
2023/11/19 06:43:27;;;;;;;12.68;5.13;;;;;;;11.81;81.60;99922.59;10301125;28;20061;-74
2023/11/19 06:48:44;;;;;;;12.30;5.50;;;;;;;11.90;81.29;99928.69;10294684;28;20055;-73
2023/11/19 06:53:46;;;;;;;8.90;4.82;;;;;;;11.98;81.13;99933.94;10302439;28;20422;-75
2023/11/19 06:58:48;;;;;;;9.30;4.60;;;;;;;12.01;81.57;99946.19;10298881;28;20050;-74
2023/11/19 07:03:51;;;;;;;11.55;4.20;;;;;;;12.14;81.12;99943.59;10293843;28;20414;-73
2023/11/19 07:08:53;;;;;;;11.27;4.22;;;;;;;12.19;80.94;99940.31;10299520;28;20053;-75
2023/11/19 07:13:54;;;;;;;11.25;4.85;;;;;;;12.22;80.81;99930.00;10279498;28;20050;-76
2023/11/19 07:18:56;;;;;;;15.40;4.45;;;;;;;12.25;80.82;99932.28;10292934;28;20101;-76
2023/11/19 07:23:57;;;;;;;9.60;4.88;;;;;;;12.22;81.15;99931.81;10300802;28;20050;-76
2023/11/19 07:28:58;;;;;;;10.23;4.75;;;;;;;12.28;81.14;99925.63;10295072;28;20053;-74
2023/11/19 07:34:00;;;;;;;9.25;4.93;;;;;;;12.32;80.91;99937.69;10299171;28;20125;-76
2023/11/19 07:39:02;;;;;;;10.30;5.80;;;;;;;12.39;80.86;99921.56;10299434;28;20050;-74
2023/11/19 07:44:03;;;;;;;9.75;5.03;;;;;;;12.41;80.96;99933.81;10304422;28;20055;-74
2023/11/19 07:49:05;;;;;;;9.10;4.70;;;;;;;12.42;80.90;99921.16;10303790;28;20130;-74
2023/11/19 07:54:06;;;;;;;10.27;6.05;;;;;;;12.45;80.90;99927.00;10307789;28;20049;-77
2023/11/19 07:59:08;;;;;;;8.10;4.10;;;;;;;12.42;81.44;99950.81;10303391;28;20065;-76
2023/11/19 08:04:10;;;;;;;7.40;3.53;;;;;;;12.38;81.53;99968.41;10302329;28;21158;-76
2023/11/19 08:09:13;;;;;;;9.02;3.47;;;;;;;12.43;81.56;99961.41;10300166;28;20038;-76
2023/11/19 08:14:15;;;;;;;7.03;2.95;;;;;;;12.53;81.46;99952.97;10303043;28;20498;-79
2023/11/19 08:19:16;;;;;;;5.78;3.10;;;;;;;12.61;81.63;99949.28;10301843;28;20042;-72
2023/11/19 08:24:18;;;;;;;7.63;3.05;;;;;;;12.63;81.75;99937.25;10309931;28;20047;-75
2023/11/19 08:29:19;;;;;;;6.30;3.33;;;;;;;12.68;81.49;99942.06;10313439;28;20134;-77
2023/11/19 08:34:21;;;;;;;8.80;3.45;;;;;;;12.79;81.59;99946.88;10311726;28;20054;-77
2023/11/19 08:39:22;;;;;;;5.45;2.45;;;;;;;12.79;81.48;99952.25;10310355;28;20058;-72
2023/11/19 08:44:25;;;;;;;6.15;2.85;;;;;;;12.80;81.88;99972.81;10278103;28;20046;-76
2023/11/19 08:49:26;;;;;;;9.27;3.42;;;;;;;12.83;81.65;99964.31;10310351;28;20141;-78
2023/11/19 08:54:27;;;;;;;8.65;3.47;;;;;;;12.77;81.54;99962.41;10309601;28;20038;-71
2023/11/19 08:59:29;;;;;;;7.13;3.78;;;;;;;12.81;82.02;99947.50;10288467;28;20050;-71
2023/11/19 09:04:31;;;;;;;8.63;4.00;;;;;;;12.98;81.77;99947.19;10293076;28;20054;-71
2023/11/19 09:09:35;;;;;;;7.70;3.50;;;;;;;13.04;81.55;99949.88;10275159;28;20120;-70
2023/11/19 09:14:37;;;;;;;8.50;3.55;;;;;;;12.93;81.64;99945.06;10291313;28;20067;-73
2023/11/19 09:19:38;;;;;;;5.45;2.47;;;;;;;13.00;81.70;99945.09;10299937;28;20058;-72
2023/11/19 09:24:40;;;;;;;4.40;2.50;;;;;;;12.98;82.02;99941.78;10308200;28;20046;-72
2023/11/19 09:29:42;;;;;;;6.40;2.70;;;;;;;13.08;81.94;99945.75;10306089;28;20209;-72
2023/11/19 09:34:44;;;;;;;7.32;2.90;;;;;;;13.22;82.05;99946.63;10307275;28;20167;-69
2023/11/19 09:39:45;;;;;;;4.40;2.03;;;;;;;13.35;82.09;99943.16;10307035;28;20133;-73
2023/11/19 09:44:47;;;;;;;5.35;1.40;;;;;;;13.48;82.26;99945.88;10307338;28;20066;-73
2023/11/19 09:49:49;;;;;;;3.20;1.40;;;;;;;13.58;82.15;99934.66;10300151;28;20054;-72
2023/11/19 09:54:51;;;;;;;5.07;1.40;;;;;;;13.69;82.31;99934.06;10298071;28;20066;-74
2023/11/19 09:59:53;;;;;;;1.35;0.52;;;;;;;13.82;81.95;99938.66;10309429;28;20126;-70
2023/11/19 10:04:55;;;;;;;3.88;0.30;;;;;;;13.96;81.09;99931.38;10295639;28;20540;-69
2023/11/19 10:09:57;;;;;;;10.02;1.30;;;;;;;14.13;79.83;99941.75;10310639;28;20047;-69
2023/11/19 10:14:59;;;;;;;6.20;0.40;;;;;;;14.32;78.30;99951.72;10308423;28;20699;-71
2023/11/19 10:20:01;;;;;;;4.25;0.50;;;;;;;14.48;76.85;99943.16;10293558;28;20054;-72
2023/11/19 10:25:03;;;;;;;8.02;0.52;;;;;;;14.61;74.49;99941.47;10262511;28;20079;-71
2023/11/19 10:30:05;;;;;;;5.50;0.38;;;;;;;14.85;73.94;99940.78;10229687;28;20154;-70
2023/11/19 10:35:13;;;;;;;10.55;0.82;;;;;;;15.02;73.68;99943.00;10262351;28;20438;-70
2023/11/19 10:40:15;;;;;;;4.50;1.25;;;;;;;15.16;73.32;99930.22;10258497;28;20134;-71
2023/11/19 10:45:23;;;;;;;5.93;0.50;;;;;;;15.30;73.33;99934.53;10265033;28;20051;-70
2023/11/19 10:50:26;;;;;;;3.50;0.60;;;;;;;15.40;72.72;99936.75;10264242;28;20051;-68
2023/11/19 10:55:30;;;;;;;4.60;0.95;;;;;;;15.58;71.90;99931.44;10267793;28;20133;-69
2023/11/19 11:00:43;;;;;;;4.85;0.30;;;;;;;15.68;66.93;99928.25;10255802;28;20090;-67
2023/11/19 11:05:49;;;;;;;9.13;0.88;;;;;;;15.74;63.33;99934.69;10250827;28;20145;-69
2023/11/19 11:10:55;;;;;;;6.85;0.47;;;;;;;15.79;61.35;99937.56;10258569;28;20074;-70
2023/11/19 11:15:58;;;;;;;7.32;0.60;;;;;;;15.94;61.66;99927.22;10246699;28;20142;-69
2023/11/19 11:21:06;;;;;;;7.80;0.60;;;;;;;15.97;60.04;99915.09;10278952;28;20481;-69
2023/11/19 11:26:52;;;;;;;3.13;0.50;;;;;;;16.12;62.08;99902.03;10307605;28;20078;-70
2023/11/19 11:32:08;;;;;;;3.05;1.08;;;;;;;16.11;59.71;99892.22;10325760;28;20133;-70
2023/11/19 11:37:19;;;;;;;4.70;0.50;;;;;;;16.05;56.67;99909.41;10287263;28;20073;-70
2023/11/19 11:42:21;;;;;;;11.15;1.50;;;;;;;16.10;57.05;99903.31;10312006;28;20065;-70
2023/11/19 11:47:23;;;;;;;6.38;0.65;;;;;;;16.08;55.65;99898.13;10296745;28;20054;-71
2023/11/19 11:52:26;;;;;;;6.15;1.10;;;;;;;16.09;54.75;99912.50;10296955;28;20069;-69
2023/11/19 11:57:37;;;;;;;7.35;0.75;;;;;;;16.11;54.99;99894.94;10296343;28;20688;-70
2023/11/19 12:02:38;;;;;;;10.65;0.93;;;;;;;16.31;56.79;99907.47;10291968;28;20401;-68
2023/11/19 12:07:40;;;;;;;10.57;0.43;;;;;;;16.34;55.76;99912.47;10315834;28;20062;-69
2023/11/19 12:12:42;;;;;;;7.22;0.50;;;;;;;16.37;56.45;99891.16;10300384;28;20121;-71
2023/11/19 12:17:51;;;;;;;6.28;0.70;;;;;;;16.44;56.31;99913.59;10306099;28;20134;-70
2023/11/19 12:22:53;;;;;;;8.52;0.50;;;;;;;16.52;56.16;99900.78;10296719;28;20084;-71
2023/11/19 12:27:55;;;;;;;9.10;0.43;;;;;;;16.54;55.68;99899.50;10319604;28;20448;-70
2023/11/19 12:32:57;;;;;;;13.05;0.68;;;;;;;16.59;55.26;99894.22;10297432;28;20054;-69
2023/11/19 12:37:59;;;;;;;7.18;1.85;;;;;;;16.73;55.73;99891.38;10305939;28;20558;-70
2023/11/19 12:43:01;;;;;;;7.20;0.73;;;;;;;16.78;56.13;99888.78;10305927;28;20399;-70
2023/11/19 12:48:07;;;;;;;7.18;0.75;;;;;;;16.91;56.51;99874.25;10306081;28;20102;-69
2023/11/19 12:53:09;;;;;;;8.10;1.60;;;;;;;16.95;56.96;99861.88;10305263;28;20112;-70
2023/11/19 12:58:10;;;;;;;5.60;0.80;;;;;;;17.26;57.08;99868.94;10305454;28;20145;-68
2023/11/19 13:03:12;;;;;;;6.75;1.00;;;;;;;17.56;57.04;99849.88;10277831;28;20046;-69
2023/11/19 13:08:13;;;;;;;5.25;0.50;;;;;;;17.55;56.31;99859.06;10308225;28;20074;-70
2023/11/19 13:13:15;;;;;;;4.35;0.30;;;;;;;17.57;55.51;99851.50;10296407;28;20133;-69
2023/11/19 13:18:17;;;;;;;5.40;0.73;;;;;;;17.71;55.62;99848.56;10297184;28;20501;-69
2023/11/19 13:23:19;;;;;;;4.15;0.65;;;;;;;17.84;55.53;99851.09;10290193;28;20536;-67
2023/11/19 13:28:22;;;;;;;2.97;0.30;;;;;;;17.69;53.31;99851.53;10304743;28;20512;-70
2023/11/19 13:33:23;;;;;;;8.18;0.40;;;;;;;17.71;53.96;99851.28;10290589;28;20080;-69
2023/11/19 13:38:26;;;;;;;6.30;0.60;;;;;;;17.71;53.18;99848.56;10304772;28;20581;-70
2023/11/19 13:43:28;;;;;;;3.58;0.32;;;;;;;17.82;53.67;99826.81;10309681;28;20081;-66
2023/11/19 13:48:29;;;;;;;6.05;0.50;;;;;;;17.90;53.88;99833.84;10309290;28;20050;-65
2023/11/19 13:53:31;;;;;;;5.57;0.45;;;;;;;17.71;53.91;99832.25;10291276;28;20047;-66
2023/11/19 13:58:32;;;;;;;4.53;0.60;;;;;;;17.60;53.85;99828.50;10295645;28;20587;-67
2023/11/19 14:03:34;;;;;;;5.50;0.47;;;;;;;17.44;54.37;99828.09;10305507;28;20054;-67
2023/11/19 14:08:36;;;;;;;7.15;0.82;;;;;;;17.36;54.36;99828.44;10289781;28;20046;-67
2023/11/19 14:13:37;;;;;;;7.63;0.70;;;;;;;17.17;54.36;99830.41;10301730;28;20050;-66
2023/11/19 14:18:40;;;;;;;4.07;0.40;;;;;;;16.94;53.25;99824.91;10287221;28;20061;-66
2023/11/19 14:23:43;;;;;;;6.15;0.40;;;;;;;16.88;53.76;99823.13;10282208;28;20133;-66
2023/11/19 14:28:44;;;;;;;6.57;0.50;;;;;;;16.79;54.11;99815.25;10307267;28;20084;-67
2023/11/19 14:33:49;;;;;;;5.07;0.77;;;;;;;16.72;54.38;99809.09;10305681;28;20050;-67
2023/11/19 14:38:50;;;;;;;3.13;0.30;;;;;;;16.63;54.71;99802.34;10305164;28;20050;-67
2023/11/19 14:43:52;;;;;;;4.43;1.15;;;;;;;16.52;54.91;99797.69;10302915;28;20054;-67
2023/11/19 14:48:53;;;;;;;3.60;0.82;;;;;;;16.34;54.61;99807.50;10300163;28;20054;-66
2023/11/19 14:53:55;;;;;;;6.72;0.60;;;;;;;16.25;54.29;99808.84;10307538;28;20517;-67
2023/11/19 14:58:56;;;;;;;4.80;0.32;;;;;;;16.17;54.30;99812.72;10306643;28;20046;-67
2023/11/19 15:03:58;;;;;;;8.35;1.42;;;;;;;15.99;54.01;99813.50;10340770;28;20050;-69
2023/11/19 15:09:07;;;;;;;4.03;0.45;;;;;;;15.88;54.02;99833.25;10331541;28;20054;-68
2023/11/19 15:14:09;;;;;;;4.38;0.40;;;;;;;15.74;53.23;99848.81;10311172;28;20493;-69
2023/11/19 15:19:12;;;;;;;5.68;0.28;;;;;;;15.70;53.39;99850.28;10313195;28;20126;-68
2023/11/19 15:24:13;;;;;;;4.85;0.95;;;;;;;15.65;53.68;99860.94;10292909;28;20125;-69
2023/11/19 15:29:15;;;;;;;7.03;1.02;;;;;;;15.64;54.19;99857.41;10315922;28;20073;-68
2023/11/19 15:34:16;;;;;;;5.03;0.40;;;;;;;15.51;54.56;99872.94;10315245;28;20074;-68
2023/11/19 15:39:19;;;;;;;6.03;0.52;;;;;;;15.36;54.99;99871.34;10320115;23;20048;-84
2023/11/19 15:44:20;;;;;;;6.15;0.32;;;;;;;15.30;55.11;99877.66;10262977;28;20062;-88
2023/11/19 15:49:22;;;;;;;7.55;1.10;;;;;;;15.26;55.17;99882.69;10279904;23;20054;-69
2023/11/19 15:54:24;;;;;;;8.25;0.30;;;;;;;15.20;55.52;99899.78;10285073;28;20097;-70
2023/11/19 15:59:25;;;;;;;7.07;0.45;;;;;;;15.21;55.43;99895.22;10282016;28;20047;-63
2023/11/19 16:04:26;;;;;;;5.25;0.70;;;;;;;15.26;55.56;99898.94;10274108;28;20061;-63
2023/11/19 16:09:28;;;;;;;6.25;1.10;;;;;;;15.24;55.89;99906.47;10278717;28;20410;-63
2023/11/19 16:14:30;;;;;;;12.35;0.63;;;;;;;15.19;56.01;99906.28;10282458;28;20051;-65
2023/11/19 16:19:34;;;;;;;6.78;1.65;;;;;;;15.20;55.93;99907.91;10257177;28;20473;-65
2023/11/19 16:24:36;;;;;;;7.18;0.63;;;;;;;15.17;56.60;99902.94;10278899;28;20055;-63
2023/11/19 16:29:38;;;;;;;8.10;0.50;;;;;;;15.13;56.62;99903.59;10263353;28;20061;-63
2023/11/19 16:34:42;;;;;;;6.55;0.60;;;;;;;15.04;56.82;99900.31;10263081;28;20436;-62
2023/11/19 16:39:44;;;;;;;6.32;0.65;;;;;;;14.96;56.98;99914.09;10259911;28;20039;-63
2023/11/19 16:44:45;;;;;;;9.70;0.85;;;;;;;14.92;57.20;99905.56;10288750;28;20142;-62
2023/11/19 16:49:47;;;;;;;7.18;1.08;;;;;;;14.88;57.19;99913.28;10226399;28;20110;-62
2023/11/19 16:54:48;;;;;;;6.88;1.70;;;;;;;14.83;57.26;99910.41;10218773;28;20050;-63
2023/11/19 16:59:56;;;;;;;7.53;0.77;;;;;;;14.79;57.41;99906.47;10246081;28;20070;-62
2023/11/19 17:04:57;;;;;;;9.73;0.93;;;;;;;14.80;57.54;99915.41;10221429;28;20446;-63
2023/11/19 17:09:59;;;;;;;6.65;0.75;;;;;;;14.77;57.43;99907.72;10228263;28;20051;-63
2023/11/19 17:15:04;;;;;;;3.95;0.40;;;;;;;14.75;57.46;99916.06;10229104;28;20054;-63
2023/11/19 17:20:07;;;;;;;3.38;0.45;;;;;;;14.58;57.63;99915.69;10231112;28;20066;-63
2023/11/19 17:25:13;;;;;;;7.13;1.20;;;;;;;14.50;57.60;99913.19;10243392;28;20055;-66
2023/11/19 17:30:16;;;;;;;4.53;1.00;;;;;;;14.40;57.51;99913.63;10240089;28;20047;-66
2023/11/19 17:35:17;;;;;;;13.95;1.30;;;;;;;14.36;57.38;99920.50;10243198;28;20490;-65
2023/11/19 17:40:20;;;;;;;5.13;1.42;;;;;;;14.27;57.19;99916.38;10239166;28;20689;-66
2023/11/19 17:45:22;;;;;;;3.92;0.52;;;;;;;14.21;57.25;99911.81;10242304;28;20058;-65
2023/11/19 17:50:25;;;;;;;9.43;0.73;;;;;;;14.18;57.54;99906.81;10271533;28;20063;-66
2023/11/19 17:55:27;;;;;;;7.80;0.70;;;;;;;14.08;57.72;99913.50;10282065;28;20050;-65
2023/11/19 18:00:28;;;;;;;2.78;0.40;;;;;;;14.03;57.83;99924.09;10284415;28;20047;-65
2023/11/19 18:05:30;;;;;;;7.93;1.13;;;;;;;13.99;57.85;99919.31;10267312;28;20054;-66
2023/11/19 18:10:31;;;;;;;10.63;0.88;;;;;;;13.94;57.78;99911.84;10281393;28;20050;-65
2023/11/19 18:15:34;;;;;;;9.90;0.80;;;;;;;13.90;58.00;99905.16;10282730;28;20054;-64
2023/11/19 18:20:38;;;;;;;2.85;0.30;;;;;;;13.82;58.07;99914.34;10281262;28;20047;-65
2023/11/19 18:25:39;;;;;;;7.30;0.52;;;;;;;13.77;57.98;99932.22;10290320;28;20150;-65
2023/11/19 18:30:41;;;;;;;7.60;0.55;;;;;;;13.74;58.07;99928.03;10288634;28;20501;-65
2023/11/19 18:35:43;;;;;;;6.72;0.85;;;;;;;13.64;58.45;99941.94;10289904;28;20053;-65
2023/11/19 18:40:45;;;;;;;7.57;0.60;;;;;;;13.58;58.39;99934.66;10263297;28;20449;-65
2023/11/19 18:45:47;;;;;;;5.47;0.75;;;;;;;13.52;58.75;99937.38;10265877;28;20050;-64
2023/11/19 18:50:49;;;;;;;6.70;0.77;;;;;;;13.43;58.92;99939.44;10244186;28;20055;-65
2023/11/19 18:55:52;;;;;;;7.53;0.80;;;;;;;13.34;59.04;99937.97;10242715;28;20047;-65
2023/11/19 19:00:54;;;;;;;7.70;0.70;;;;;;;13.32;59.19;99937.34;10241702;28;20054;-64
2023/11/19 19:05:55;;;;;;;3.58;0.47;;;;;;;13.34;58.93;99930.69;10215025;28;20102;-65
2023/11/19 19:10:57;;;;;;;9.15;0.75;;;;;;;13.38;59.07;99939.22;10235413;28;20506;-64
2023/11/19 19:15:58;;;;;;;5.30;0.60;;;;;;;13.45;59.45;99946.31;10236550;28;20062;-65
2023/11/19 19:21:00;;;;;;;7.95;0.60;;;;;;;13.52;59.07;99954.41;10240781;28;20302;-64
2023/11/19 19:26:02;;;;;;;9.23;0.80;;;;;;;13.59;58.88;99943.63;10252130;28;20078;-65
2023/11/19 19:31:05;;;;;;;8.13;0.50;;;;;;;13.66;59.13;99947.16;10245463;28;20043;-65
2023/11/19 19:36:09;;;;;;;9.02;0.80;;;;;;;13.68;59.31;99945.06;10217845;28;20051;-65
2023/11/19 19:41:10;;;;;;;9.40;1.35;;;;;;;13.68;59.42;99945.94;10227560;28;20137;-63
2023/11/19 19:46:12;;;;;;;6.97;0.47;;;;;;;13.70;59.34;99951.09;10240897;28;20134;-64
2023/11/19 19:51:14;;;;;;;5.57;0.52;;;;;;;13.74;59.33;99952.34;10280373;28;20051;-65
2023/11/19 19:56:15;;;;;;;6.32;0.50;;;;;;;13.79;59.17;99940.94;10279552;28;20062;-65
2023/11/19 20:01:17;;;;;;;5.70;0.82;;;;;;;13.77;59.00;99946.53;10276723;28;20047;-61
2023/11/19 20:06:21;;;;;;;6.28;0.60;;;;;;;13.78;58.99;99937.38;10281445;28;20046;-62
2023/11/19 20:11:22;;;;;;;9.77;1.00;;;;;;;13.83;58.62;99936.78;10275499;28;20141;-64
2023/11/19 20:16:24;;;;;;;7.03;0.60;;;;;;;13.82;58.81;99925.16;10267663;28;20448;-62
2023/11/19 20:21:25;;;;;;;9.88;0.40;;;;;;;13.78;59.16;99936.56;10271660;28;20086;-61
2023/11/19 20:26:30;;;;;;;7.07;0.95;;;;;;;13.82;59.06;99945.91;10290548;28;20070;-63
2023/11/19 20:31:31;;;;;;;11.98;1.13;;;;;;;13.82;59.28;99940.50;10263412;28;20461;-64
2023/11/19 20:36:33;;;;;;;4.38;0.52;;;;;;;13.88;59.01;99931.56;10286654;28;20137;-62
2023/11/19 20:41:34;;;;;;;7.72;0.50;;;;;;;13.87;59.34;99929.94;10282503;28;20121;-62
2023/11/19 20:46:36;;;;;;;9.00;1.75;;;;;;;13.85;59.56;99932.81;10284708;28;20035;-62
2023/11/19 20:51:37;;;;;;;11.85;1.15;;;;;;;13.86;59.77;99928.25;10286536;28;20046;-61
2023/11/19 20:56:41;;;;;;;5.95;1.13;;;;;;;13.89;59.71;99938.66;10267549;28;20064;-64
2023/11/19 21:01:42;;;;;;;6.50;0.60;;;;;;;13.89;59.84;99936.78;10285553;28;20080;-62
2023/11/19 21:06:44;;;;;;;6.00;0.93;;;;;;;13.93;59.92;99930.97;10286902;28;20095;-64
2023/11/19 21:11:49;;;;;;;7.22;0.57;;;;;;;13.98;59.82;99929.31;10265460;28;20059;-66
2023/11/19 21:16:50;;;;;;;4.07;0.57;;;;;;;13.96;60.02;99927.84;10280572;28;20395;-66
2023/11/19 21:21:52;;;;;;;6.63;0.80;;;;;;;13.98;60.15;99923.06;10290227;28;20061;-67
2023/11/19 21:26:54;;;;;;;7.70;0.70;;;;;;;14.01;60.17;99928.88;10283842;28;20053;-67
2023/11/19 21:31:56;;;;;;;8.75;0.80;;;;;;;14.01;60.23;99926.16;10279909;28;20061;-67
2023/11/19 21:36:57;;;;;;;8.65;1.02;;;;;;;14.03;60.38;99931.38;10284575;28;20502;-66
2023/11/19 21:41:59;;;;;;;9.50;0.60;;;;;;;14.02;60.41;99924.28;10261824;28;20121;-67
2023/11/19 21:47:00;;;;;;;9.77;0.65;;;;;;;14.03;60.32;99936.78;10279026;28;20371;-67
2023/11/19 21:52:02;;;;;;;7.38;0.98;;;;;;;14.09;60.24;99934.06;10249745;28;20049;-65
2023/11/19 21:57:04;;;;;;;10.43;0.73;;;;;;;14.08;60.42;99923.47;10244053;28;20051;-65
2023/11/19 22:02:06;;;;;;;6.07;0.68;;;;;;;14.14;60.55;99930.75;10254488;28;20447;-65
2023/11/19 22:07:08;;;;;;;7.78;0.70;;;;;;;14.16;60.52;99925.09;10254711;28;20043;-64
2023/11/19 22:12:10;;;;;;;12.30;0.65;;;;;;;14.19;60.50;99925.53;10247371;28;20055;-64
2023/11/19 22:17:12;;;;;;;12.70;1.13;;;;;;;14.18;60.55;99931.13;10243106;28;20043;-64
2023/11/19 22:22:13;;;;;;;7.53;0.60;;;;;;;14.21;60.53;99933.44;10244329;28;20054;-64
2023/11/19 22:27:15;;;;;;;7.88;1.58;;;;;;;14.15;60.92;99926.16;10248064;28;20529;-64
2023/11/19 22:32:16;;;;;;;13.20;0.60;;;;;;;14.21;60.57;99923.44;10246426;28;20140;-64
2023/11/19 22:37:20;;;;;;;10.23;0.93;;;;;;;14.16;60.97;99917.84;10244280;28;20047;-64
2023/11/19 22:42:22;;;;;;;11.10;0.65;;;;;;;14.19;60.84;99911.19;10245518;28;20062;-65
2023/11/19 22:47:23;;;;;;;9.13;0.80;;;;;;;14.20;60.97;99902.06;10254633;28;20042;-65
2023/11/19 22:52:25;;;;;;;7.18;0.88;;;;;;;14.20;60.78;99902.06;10286995;28;20046;-64
2023/11/19 22:57:26;;;;;;;8.65;0.90;;;;;;;14.25;60.76;99907.63;10283459;28;20039;-64
2023/11/19 23:02:29;;;;;;;11.73;1.23;;;;;;;14.22;60.96;99903.50;10282960;28;20043;-65
2023/11/19 23:07:31;;;;;;;5.57;0.68;;;;;;;14.26;60.85;99906.59;10288017;28;20051;-65
2023/11/19 23:12:32;;;;;;;6.95;0.82;;;;;;;14.27;61.05;99908.25;10292600;28;20068;-64
2023/11/19 23:17:34;;;;;;;10.82;0.88;;;;;;;14.24;60.92;99914.09;10280145;28;20090;-63